Time,TemperatureF,DewpointF,PressureIn,WindDirection,WindDirectionDegrees,WindSpeedMPH,WindSpeedGustMPH,Humidity,HourlyPrecipIn,Conditions,Clouds,dailyrainin,SoftwareType,DateUTC
2013-11-16 00:08:00,43.4,23.0,30.46,NNE,23,0.0,2.0,45,0.00,,,0.00,weatherlink.com 1.10,2013-11-16 05:08:00,
2013-11-16 00:24:00,42.8,23.0,30.46,NNE,23,0.0,1.0,46,0.00,,,0.00,weatherlink.com 1.10,2013-11-16 05:24:00,
2013-11-16 00:39:00,42.9,23.0,30.46,NNE,23,0.0,1.0,46,0.00,,,0.00,weatherlink.com 1.10,2013-11-16 05:39:00,
2013-11-16 00:54:00,43.3,22.0,30.46,NNE,23,0.0,1.0,43,0.00,,,0.00,weatherlink.com 1.10,2013-11-16 05:54:00,
2013-11-16 01:09:00,43.6,22.0,30.46,NNE,23,0.0,1.0,43,0.00,,,0.00,weatherlink.com 1.10,2013-11-16 06:09:00,
2013-11-16 01:24:00,43.6,23.0,30.47,South,187,2.0,2.0,45,0.00,,,0.00,weatherlink.com 1.10,2013-11-16 06:24:00,
2013-11-16 01:39:00,45.2,24.0,30.47,East,101,3.0,3.0,43,0.00,,,0.00,weatherlink.com 1.10,2013-11-16 06:39:00,
2013-11-16 01:54:00,44.9,25.0,30.48,ENE,66,0.0,2.0,45,0.00,,,0.00,weatherlink.com 1.10,2013-11-16 06:54:00,
2013-11-16 02:09:00,46.4,25.0,30.49,SE,124,1.0,5.0,43,0.00,,,0.00,weatherlink.com 1.10,2013-11-16 07:09:00,
2013-11-16 02:24:00,47.7,24.0,30.49,SW,222,0.0,6.0,39,0.00,,,0.00,weatherlink.com 1.10,2013-11-16 07:24:00,
2013-11-16 02:39:00,49.0,24.0,30.49,SW,219,2.0,8.0,38,0.00,,,0.00,weatherlink.com 1.10,2013-11-16 07:39:00,
2013-11-16 02:54:00,49.8,27.0,30.49,South,182,4.0,7.0,41,0.00,,,0.00,weatherlink.com 1.10,2013-11-16 07:54:00,
2013-11-16 03:09:00,48.9,29.0,30.50,SSW,212,4.0,9.0,46,0.00,,,0.00,weatherlink.com 1.10,2013-11-16 08:09:00,
2013-11-16 03:24:00,46.9,32.0,30.50,South,181,1.0,6.0,57,0.00,,,0.00,weatherlink.com 1.10,2013-11-16 08:24:00,
2013-11-16 03:39:00,45.8,35.0,30.49,NNE,17,0.0,3.0,65,0.00,,,0.00,weatherlink.com 1.10,2013-11-16 08:39:00,
2013-11-16 03:54:00,44.5,35.0,30.50,SSW,199,0.0,3.0,70,0.00,,,0.00,weatherlink.com 1.10,2013-11-16 08:54:00,
2013-11-16 04:09:00,43.9,35.0,30.50,SSW,199,0.0,2.0,72,0.01,,,0.01,weatherlink.com 1.10,2013-11-16 09:09:00,
2013-11-16 04:24:00,43.8,36.0,30.50,SE,138,2.0,2.0,75,0.01,,,0.01,weatherlink.com 1.10,2013-11-16 09:24:00,
2013-11-16 04:39:00,42.9,37.0,30.50,SE,138,0.0,2.0,79,0.01,,,0.01,weatherlink.com 1.10,2013-11-16 09:39:00,
2013-11-16 04:54:00,42.2,38.0,30.50,SE,138,0.0,1.0,85,0.01,,,0.01,weatherlink.com 1.10,2013-11-16 09:54:00,
2013-11-16 05:09:00,41.7,38.0,30.50,SE,138,0.0,1.0,85,0.00,,,0.01,weatherlink.com 1.10,2013-11-16 10:09:00,
2013-11-16 05:24:00,41.6,34.0,30.49,SE,138,0.0,1.0,75,0.00,,,0.01,weatherlink.com 1.10,2013-11-16 10:24:00,
2013-11-16 05:39:00,42.0,35.0,30.49,SE,138,0.0,1.0,76,0.00,,,0.01,weatherlink.com 1.10,2013-11-16 10:39:00,
2013-11-16 05:54:00,42.2,34.0,30.50,SE,138,0.0,2.0,72,0.00,,,0.01,weatherlink.com 1.10,2013-11-16 10:54:00,
2013-11-16 06:09:00,42.3,33.0,30.50,SE,138,0.0,1.0,69,0.00,,,0.01,weatherlink.com 1.10,2013-11-16 11:09:00,
2013-11-16 06:24:00,42.5,33.0,30.51,SE,138,0.0,1.0,70,0.00,,,0.01,weatherlink.com 1.10,2013-11-16 11:24:00,
2013-11-16 06:39:00,42.4,35.0,30.51,SE,138,0.0,1.0,75,0.00,,,0.01,weatherlink.com 1.10,2013-11-16 11:39:00,
2013-11-16 06:54:00,42.2,35.0,30.52,SE,138,0.0,0.0,75,0.00,,,0.01,weatherlink.com 1.10,2013-11-16 11:54:00,
2013-11-16 07:09:00,41.7,34.0,30.52,SE,138,0.0,0.0,75,0.00,,,0.01,weatherlink.com 1.10,2013-11-16 12:09:00,
2013-11-16 07:24:00,41.4,35.0,30.53,SE,138,0.0,0.0,79,0.00,,,0.01,weatherlink.com 1.10,2013-11-16 12:24:00,
2013-11-16 07:39:00,41.2,35.0,30.53,SE,138,0.0,0.0,79,0.00,,,0.01,weatherlink.com 1.10,2013-11-16 12:39:00,
2013-11-16 07:54:00,41.2,35.0,30.53,SE,138,0.0,0.0,79,0.00,,,0.01,weatherlink.com 1.10,2013-11-16 12:54:00,
2013-11-16 08:09:00,41.1,35.0,30.53,SE,138,0.0,0.0,79,0.00,,,0.01,weatherlink.com 1.10,2013-11-16 13:09:00,
2013-11-16 08:24:00,41.2,35.0,30.54,SE,138,0.0,1.0,78,0.00,,,0.01,weatherlink.com 1.10,2013-11-16 13:24:00,
2013-11-16 08:39:00,41.5,35.0,30.55,SE,138,0.0,1.0,77,0.00,,,0.01,weatherlink.com 1.10,2013-11-16 13:39:00,
2013-11-16 08:54:00,42.9,34.0,30.55,North,11,0.0,3.0,70,0.00,,,0.01,weatherlink.com 1.10,2013-11-16 13:54:00,
2013-11-16 09:09:00,45.5,34.0,30.55,NNW,342,2.0,3.0,65,0.00,,,0.01,weatherlink.com 1.10,2013-11-16 14:09:00,
2013-11-16 09:24:00,48.1,35.0,30.55,NNW,347,0.0,3.0,61,0.00,,,0.01,weatherlink.com 1.10,2013-11-16 14:24:00,
2013-11-16 09:39:00,49.6,35.0,30.56,NNW,343,3.0,4.0,58,0.00,,,0.01,weatherlink.com 1.10,2013-11-16 14:39:00,
2013-11-16 09:54:00,50.0,36.0,30.56,North,5,0.0,3.0,58,0.00,,,0.01,weatherlink.com 1.10,2013-11-16 14:54:00,
2013-11-16 10:09:00,51.6,36.0,30.56,ESE,106,2.0,4.0,55,0.00,,,0.01,weatherlink.com 1.10,2013-11-16 15:09:00,
2013-11-16 10:24:00,52.9,36.0,30.56,NNE,12,1.0,4.0,54,0.00,,,0.01,weatherlink.com 1.10,2013-11-16 15:24:00,
2013-11-16 10:39:00,53.9,38.0,30.55,ESE,121,1.0,3.0,56,0.00,,,0.01,weatherlink.com 1.10,2013-11-16 15:39:00,
2013-11-16 10:54:00,55.8,38.0,30.55,East,88,2.0,5.0,52,0.01,,,0.02,weatherlink.com 1.10,2013-11-16 15:54:00,
2013-11-16 11:09:00,56.9,38.0,30.54,ESE,108,0.0,4.0,50,0.01,,,0.02,weatherlink.com 1.10,2013-11-16 16:09:00,
2013-11-16 11:24:00,57.7,38.0,30.54,SSW,204,0.0,5.0,48,0.01,,,0.02,weatherlink.com 1.10,2013-11-16 16:24:00,
2013-11-16 11:39:00,57.6,38.0,30.53,NE,56,0.0,5.0,48,0.01,,,0.00,weatherlink.com 1.10,2013-11-16 16:39:00,
2013-11-16 11:54:00,59.6,38.0,30.52,SSW,205,0.0,4.0,45,0.00,,,0.00,weatherlink.com 1.10,2013-11-16 16:54:00,
2013-11-16 12:10:00,59.9,37.0,30.51,ENE,60,1.0,4.0,43,0.00,,,0.00,weatherlink.com 1.10,2013-11-16 17:10:00,
2013-11-16 12:25:00,60.0,37.0,30.50,SE,134,2.0,4.0,43,0.00,,,0.00,weatherlink.com 1.10,2013-11-16 17:25:00,
2013-11-16 12:40:00,60.7,37.0,30.51,North,350,1.0,3.0,42,0.00,,,0.00,weatherlink.com 1.10,2013-11-16 17:40:00,
2013-11-16 12:55:00,60.9,35.0,30.51,NW,323,3.0,6.0,38,0.00,,,0.00,weatherlink.com 1.10,2013-11-16 17:55:00,
2013-11-16 13:10:00,61.6,37.0,30.51,NW,313,1.0,4.0,41,0.00,,,0.00,weatherlink.com 1.10,2013-11-16 18:10:00,
2013-11-16 13:25:00,61.2,37.0,30.50,SSE,161,1.0,6.0,40,0.00,,,0.00,weatherlink.com 1.10,2013-11-16 18:25:00,
2013-11-16 13:40:00,61.7,37.0,30.50,ENE,73,0.0,6.0,40,0.00,,,0.00,weatherlink.com 1.10,2013-11-16 18:40:00,
2013-11-16 13:55:00,61.8,37.0,30.50,ENE,57,1.0,5.0,40,0.00,,,0.00,weatherlink.com 1.10,2013-11-16 18:55:00,
2013-11-16 14:10:00,61.6,37.0,30.50,SSW,202,0.0,5.0,41,0.00,,,0.00,weatherlink.com 1.10,2013-11-16 19:10:00,
2013-11-16 14:25:00,61.0,38.0,30.50,ENE,62,4.0,5.0,43,0.00,,,0.00,weatherlink.com 1.10,2013-11-16 19:25:00,
2013-11-16 14:40:00,59.5,37.0,30.50,East,85,2.0,4.0,44,0.00,,,0.00,weatherlink.com 1.10,2013-11-16 19:40:00,
2013-11-16 14:55:00,57.9,38.0,30.50,NNE,19,1.0,4.0,47,0.00,,,0.00,weatherlink.com 1.10,2013-11-16 19:55:00,
2013-11-16 15:10:00,56.8,39.0,30.50,SSW,198,0.0,3.0,51,0.00,,,0.00,weatherlink.com 1.10,2013-11-16 20:10:00,
2013-11-16 15:25:00,55.6,38.0,30.51,SE,130,0.0,5.0,53,0.00,,,0.00,weatherlink.com 1.10,2013-11-16 20:25:00,
2013-11-16 15:40:00,54.5,39.0,30.51,East,98,0.0,4.0,57,0.00,,,0.00,weatherlink.com 1.10,2013-11-16 20:40:00,
2013-11-16 15:55:00,53.7,39.0,30.50,WSW,241,1.0,2.0,59,0.00,,,0.00,weatherlink.com 1.10,2013-11-16 20:55:00,
2013-11-16 16:10:00,52.7,39.0,30.50,WSW,241,0.0,2.0,61,0.00,,,0.00,weatherlink.com 1.10,2013-11-16 21:10:00,
2013-11-16 16:25:00,52.1,40.0,30.50,NE,53,0.0,2.0,63,0.00,,,0.00,weatherlink.com 1.10,2013-11-16 21:25:00,
2013-11-16 16:40:00,51.4,40.0,30.50,NE,53,0.0,1.0,65,0.00,,,0.00,weatherlink.com 1.10,2013-11-16 21:40:00,
2013-11-16 16:55:00,50.5,39.0,30.50,NE,53,0.0,1.0,66,0.00,,,0.00,weatherlink.com 1.10,2013-11-16 21:55:00,
2013-11-16 17:10:00,50.0,40.0,30.50,NE,53,0.0,1.0,68,0.00,,,0.00,weatherlink.com 1.10,2013-11-16 22:10:00,
2013-11-16 17:25:00,49.5,40.0,30.51,NE,53,0.0,1.0,69,0.00,,,0.00,weatherlink.com 1.10,2013-11-16 22:25:00,
2013-11-16 17:40:00,49.1,40.0,30.50,NE,53,0.0,1.0,71,0.00,,,0.00,weatherlink.com 1.10,2013-11-16 22:40:00,
2013-11-16 17:55:00,48.5,40.0,30.51,ESE,109,0.0,2.0,72,0.00,,,0.00,weatherlink.com 1.10,2013-11-16 22:55:00,
2013-11-16 18:10:00,48.0,40.0,30.51,ESE,109,1.0,1.0,74,0.00,,,0.00,weatherlink.com 1.10,2013-11-16 23:10:00,
2013-11-16 18:25:00,47.6,40.0,30.52,ESE,111,0.0,2.0,76,0.00,,,0.00,weatherlink.com 1.10,2013-11-16 23:25:00,
2013-11-16 18:40:00,47.2,41.0,30.52,ESE,111,0.0,1.0,78,0.00,,,0.00,weatherlink.com 1.10,2013-11-16 23:40:00,
2013-11-16 18:55:00,46.5,41.0,30.52,ESE,111,0.0,1.0,80,0.00,,,0.00,weatherlink.com 1.10,2013-11-16 23:55:00,
2013-11-16 19:10:00,46.1,42.0,30.53,East,101,1.0,5.0,84,0.00,,,0.00,weatherlink.com 1.10,2013-11-17 00:10:00,
2013-11-16 19:26:00,45.6,41.0,30.53,ESE,109,0.0,2.0,83,0.00,,,0.00,weatherlink.com 1.10,2013-11-17 00:26:00,
2013-11-16 19:41:00,44.8,41.0,30.53,ESE,109,0.0,1.0,86,0.00,,,0.00,weatherlink.com 1.10,2013-11-17 00:41:00,
2013-11-16 19:56:00,44.5,41.0,30.53,ESE,109,0.0,2.0,88,0.00,,,0.00,weatherlink.com 1.10,2013-11-17 00:56:00,
2013-11-16 20:11:00,44.1,41.0,30.53,ESE,109,0.0,1.0,90,0.00,,,0.00,weatherlink.com 1.10,2013-11-17 01:11:00,
2013-11-16 20:26:00,44.1,42.0,30.53,ESE,109,0.0,0.0,91,0.00,,,0.00,weatherlink.com 1.10,2013-11-17 01:26:00,
2013-11-16 20:41:00,44.1,42.0,30.52,ESE,109,0.0,1.0,92,0.00,,,0.00,weatherlink.com 1.10,2013-11-17 01:41:00,
2013-11-16 20:56:00,43.8,42.0,30.52,ESE,109,0.0,1.0,92,0.00,,,0.00,weatherlink.com 1.10,2013-11-17 01:56:00,
2013-11-16 21:11:00,43.6,42.0,30.52,ESE,109,0.0,1.0,93,0.00,,,0.00,weatherlink.com 1.10,2013-11-17 02:11:00,
2013-11-16 21:26:00,43.3,42.0,30.52,ESE,109,0.0,1.0,94,0.00,,,0.00,weatherlink.com 1.10,2013-11-17 02:26:00,
2013-11-16 21:41:00,43.2,42.0,30.52,ESE,109,0.0,0.0,95,0.00,,,0.00,weatherlink.com 1.10,2013-11-17 02:41:00,
2013-11-16 21:56:00,43.3,42.0,30.52,ESE,109,0.0,0.0,95,0.00,,,0.00,weatherlink.com 1.10,2013-11-17 02:56:00,
2013-11-16 22:11:00,43.6,43.0,30.52,ESE,109,0.0,0.0,96,0.00,,,0.00,weatherlink.com 1.10,2013-11-17 03:11:00,
2013-11-16 22:26:00,44.1,43.0,30.53,ESE,109,0.0,0.0,96,0.00,,,0.00,weatherlink.com 1.10,2013-11-17 03:26:00,
2013-11-16 22:41:00,44.3,43.0,30.52,ESE,109,0.0,0.0,96,0.00,,,0.00,weatherlink.com 1.10,2013-11-17 03:41:00,
2013-11-16 22:56:00,44.4,43.0,30.52,ESE,109,0.0,0.0,96,0.00,,,0.00,weatherlink.com 1.10,2013-11-17 03:56:00,
2013-11-16 23:11:00,44.0,43.0,30.51,ESE,109,0.0,0.0,95,0.00,,,0.00,weatherlink.com 1.10,2013-11-17 04:11:00,
2013-11-16 23:26:00,44.1,43.0,30.51,ESE,109,0.0,0.0,96,0.00,,,0.00,weatherlink.com 1.10,2013-11-17 04:26:00,
2013-11-16 23:41:00,44.3,43.0,30.51,ESE,109,0.0,0.0,96,0.00,,,0.00,weatherlink.com 1.10,2013-11-17 04:41:00,
2013-11-16 23:56:00,44.6,44.0,30.51,ESE,109,0.0,1.0,97,0.00,,,0.00,weatherlink.com 1.10,2013-11-17 04:56:00,